Time;durP1;ratioP1;P1;durP2;ratioP2;P2;SDS_P1;SDS_P2;PMS_P1;PMS_P2;Temp;Humidity;BMP_temperature;BMP_pressure;BME280_temperature;BME280_humidity;BME280_pressure;Samples;Min_cycle;Max_cycle;Signal;HPM_P1;HPM_P2
2023/04/17 00:01:33;;;;;;;31.30;23.50;;;;;;;8.08;100.00;102401.53;5241978;28;20037;-65
2023/04/17 00:04:09;;;;;;;30.20;23.47;;;;;;;8.03;100.00;102406.66;5241492;28;20044;-65
2023/04/17 00:06:43;;;;;;;32.80;24.10;;;;;;;7.99;100.00;102402.22;5241321;28;20076;-65
2023/04/17 00:09:15;;;;;;;29.23;24.38;;;;;;;7.99;100.00;102402.22;5245211;28;20033;-65
2023/04/17 00:11:46;;;;;;;29.40;23.60;;;;;;;8.01;100.00;102404.84;5245267;28;20030;-65
2023/04/17 00:14:17;;;;;;;32.27;24.33;;;;;;;8.02;100.00;102397.09;5244916;28;20044;-65
2023/04/17 00:16:49;;;;;;;27.50;23.50;;;;;;;7.96;100.00;102396.09;5245259;28;20039;-65
2023/04/17 00:19:21;;;;;;;34.30;24.97;;;;;;;7.93;100.00;102396.88;5245192;28;20048;-65
2023/04/17 00:21:52;;;;;;;31.47;23.23;;;;;;;7.99;100.00;102397.03;5245193;28;20454;-65
2023/04/17 00:24:23;;;;;;;29.47;23.67;;;;;;;7.97;100.00;102398.72;5245076;28;20036;-65
2023/04/17 00:26:56;;;;;;;29.53;24.33;;;;;;;7.96;100.00;102389.16;5245264;28;20075;-65
2023/04/17 00:29:27;;;;;;;31.83;24.80;;;;;;;7.94;100.00;102390.84;5245013;28;20076;-65
2023/04/17 00:31:59;;;;;;;32.53;24.77;;;;;;;7.86;100.00;102389.78;5245098;28;20041;-65
2023/04/17 00:34:30;;;;;;;27.40;23.30;;;;;;;7.83;100.00;102385.41;5244612;28;20500;-66
2023/04/17 00:37:01;;;;;;;36.87;24.80;;;;;;;7.86;100.00;102379.41;5244639;28;20457;-66
2023/04/17 00:39:33;;;;;;;29.83;24.03;;;;;;;7.85;100.00;102383.69;5245171;28;20508;-66
2023/04/17 00:42:04;;;;;;;35.57;24.43;;;;;;;7.81;100.00;102375.84;5245303;28;20471;-66
2023/04/17 00:44:36;;;;;;;35.57;24.57;;;;;;;7.75;100.00;102373.94;5244296;28;20040;-66
2023/04/17 00:47:07;;;;;;;31.70;25.60;;;;;;;7.73;100.00;102377.34;5243874;28;20036;-66
2023/04/17 00:49:39;;;;;;;32.27;25.30;;;;;;;7.73;100.00;102378.22;5244836;28;20033;-66
2023/04/17 00:52:12;;;;;;;31.03;24.43;;;;;;;7.79;100.00;102377.50;5244833;28;20033;-65
2023/04/17 00:54:43;;;;;;;30.13;24.17;;;;;;;7.74;100.00;102368.72;5244526;28;20029;-65
2023/04/17 00:57:14;;;;;;;28.53;24.30;;;;;;;7.73;100.00;102378.22;5243302;28;20030;-65
2023/04/17 00:59:47;;;;;;;29.80;24.90;;;;;;;7.79;100.00;102378.38;5244430;28;20051;-65
2023/04/17 01:02:18;;;;;;;29.23;23.17;;;;;;;7.78;100.00;102373.16;5244115;28;20029;-65
2023/04/17 01:04:50;;;;;;;32.73;23.57;;;;;;;7.80;100.00;102374.06;5244277;28;20487;-65
2023/04/17 01:07:21;;;;;;;28.57;24.37;;;;;;;7.76;100.00;102369.63;5244464;28;20030;-65
2023/04/17 01:09:53;;;;;;;29.10;24.93;;;;;;;7.78;100.00;102376.63;5244171;28;20541;-65
2023/04/17 01:12:24;;;;;;;27.23;24.00;;;;;;;7.75;100.00;102373.94;5244548;28;20481;-65
2023/04/17 01:14:56;;;;;;;33.43;24.77;;;;;;;7.77;100.00;102374.84;5244178;28;20033;-66
2023/04/17 01:17:28;;;;;;;30.27;24.87;;;;;;;7.77;100.00;102379.19;5244037;28;20095;-65
2023/04/17 01:19:59;;;;;;;34.53;23.73;;;;;;;7.77;100.00;102376.59;5243931;28;20029;-65
2023/04/17 01:22:31;;;;;;;31.10;24.07;;;;;;;7.74;100.00;102379.09;5244516;28;20068;-65
2023/04/17 01:25:04;;;;;;;30.33;23.67;;;;;;;7.75;100.00;102381.72;5243769;28;20112;-65
2023/04/17 01:27:35;;;;;;;35.38;25.02;;;;;;;7.71;100.00;102379.91;5242409;28;20381;-65
2023/04/17 01:30:07;;;;;;;31.47;24.17;;;;;;;7.73;100.00;102378.22;5243689;28;20034;-65
2023/04/17 01:32:39;;;;;;;32.50;23.85;;;;;;;7.70;100.00;102372.09;5244459;28;20155;-65
2023/04/17 01:35:10;;;;;;;28.20;23.27;;;;;;;7.68;100.00;102382.44;5243639;28;20029;-65
2023/04/17 01:37:42;;;;;;;30.20;24.23;;;;;;;7.69;100.00;102380.72;5243455;28;20139;-66
2023/04/17 01:40:13;;;;;;;29.33;23.97;;;;;;;7.67;100.00;102383.28;5243507;28;20037;-65
2023/04/17 01:42:44;;;;;;;29.77;22.33;;;;;;;7.66;100.00;102382.41;5243752;28;20478;-66
2023/04/17 01:45:16;;;;;;;28.53;22.07;;;;;;;7.68;100.00;102387.63;5225714;28;20543;-66
2023/04/17 01:47:48;;;;;;;34.77;23.53;;;;;;;7.66;100.00;102378.91;5243323;28;20034;-66
2023/04/17 01:50:19;;;;;;;32.33;22.90;;;;;;;7.64;100.00;102381.47;5243241;28;20291;-65
2023/04/17 01:52:50;;;;;;;26.70;21.33;;;;;;;7.65;100.00;102379.75;5243248;28;20116;-66
2023/04/17 01:55:22;;;;;;;28.73;23.90;;;;;;;7.64;100.00;102371.06;5242232;28;20045;-65
2023/04/17 01:57:53;;;;;;;24.63;21.77;;;;;;;7.61;100.00;102376.19;5243450;28;20038;-66
2023/04/17 02:00:25;;;;;;;26.77;23.30;;;;;;;7.63;100.00;102378.81;5243139;28;20469;-65
2023/04/17 02:02:56;;;;;;;30.37;22.27;;;;;;;7.69;100.00;102389.38;5241951;28;20035;-66
2023/04/17 02:05:27;;;;;;;30.40;23.10;;;;;;;7.66;100.00;102381.50;5243019;28;20064;-66
2023/04/17 02:07:59;;;;;;;27.00;23.00;;;;;;;7.63;100.00;102384.91;5241737;28;20037;-66
2023/04/17 02:10:30;;;;;;;27.63;22.83;;;;;;;7.61;100.00;102383.09;5242658;28;20428;-65
2023/04/17 02:13:02;;;;;;;27.33;23.40;;;;;;;7.61;100.00;102383.09;5242951;28;20546;-66
2023/04/17 02:15:34;;;;;;;29.07;23.00;;;;;;;7.56;100.00;102379.53;5242182;28;20033;-65
2023/04/17 02:18:06;;;;;;;28.33;22.55;;;;;;;7.55;100.00;102385.53;5242454;28;20116;-66
2023/04/17 02:20:38;;;;;;;27.38;22.02;;;;;;;7.51;100.00;102379.41;5243031;28;20133;-65
2023/04/17 02:23:09;;;;;;;27.33;21.43;;;;;;;7.49;100.00;102381.09;5242788;28;20030;-66
2023/04/17 02:25:41;;;;;;;26.83;23.03;;;;;;;7.47;100.00;102378.47;5241440;28;20052;-65
2023/04/17 02:28:12;;;;;;;30.13;22.63;;;;;;;7.47;100.00;102382.75;5242004;28;20037;-66
2023/04/17 02:30:44;;;;;;;27.93;21.87;;;;;;;7.49;100.00;102381.09;5242465;28;20052;-66
2023/04/17 02:33:16;;;;;;;25.50;21.40;;;;;;;7.45;100.00;102380.16;5243133;28;20033;-66
2023/04/17 02:35:47;;;;;;;30.27;22.23;;;;;;;7.45;100.00;102377.56;5242546;28;20086;-63
2023/04/17 02:38:19;;;;;;;26.57;22.50;;;;;;;7.46;100.00;102374.09;5242511;28;20068;-66
2023/04/17 02:40:50;;;;;;;26.33;21.50;;;;;;;7.45;100.00;102374.94;5241350;28;20120;-66
2023/04/17 02:43:22;;;;;;;26.47;22.83;;;;;;;7.51;100.00;102383.72;5242405;28;20141;-66
2023/04/17 02:45:53;;;;;;;26.87;23.47;;;;;;;7.46;100.00;102378.41;5241351;28;20068;-66
2023/04/17 02:48:24;;;;;;;27.80;22.87;;;;;;;7.46;100.00;102389.66;5242753;28;20034;-66
2023/04/17 02:50:56;;;;;;;30.40;25.37;;;;;;;7.44;100.00;102378.38;5241343;28;20082;-66
2023/04/17 02:53:27;;;;;;;29.53;24.53;;;;;;;7.40;100.00;102386.91;5241302;28;20037;-66
2023/04/17 02:55:59;;;;;;;30.57;24.63;;;;;;;7.42;100.00;102384.34;5242743;28;20026;-66
2023/04/17 02:58:30;;;;;;;31.53;26.00;;;;;;;7.41;100.00;102385.22;5242078;28;20061;-66
2023/04/17 03:01:02;;;;;;;33.93;26.57;;;;;;;7.36;100.00;102390.28;5242131;28;20029;-64
2023/04/17 03:03:33;;;;;;;31.87;24.80;;;;;;;7.37;100.00;102388.53;5242324;28;20539;-64
2023/04/17 03:06:05;;;;;;;29.20;24.23;;;;;;;7.39;100.00;102390.34;5240687;28;20029;-65
2023/04/17 03:08:37;;;;;;;34.90;26.42;;;;;;;7.36;100.00;102387.69;5241991;28;20033;-65
2023/04/17 03:11:08;;;;;;;36.47;27.30;;;;;;;7.35;100.00;102393.69;5242796;28;20030;-65
2023/04/17 03:13:40;;;;;;;34.30;26.13;;;;;;;7.33;100.00;102387.59;5241608;28;20060;-65
2023/04/17 03:16:11;;;;;;;36.13;27.27;;;;;;;7.34;100.00;102388.47;5241984;28;20412;-65
2023/04/17 03:18:43;;;;;;;34.20;26.20;;;;;;;7.33;100.00;102397.09;5223939;28;20543;-65
2023/04/17 03:21:14;;;;;;;34.83;26.37;;;;;;;7.37;100.00;102392.00;5241847;28;20029;-65
2023/04/17 03:23:45;;;;;;;32.97;25.63;;;;;;;7.39;100.00;102394.66;5242066;28;20417;-65
2023/04/17 03:26:17;;;;;;;33.77;25.87;;;;;;;7.37;100.00;102398.94;5242255;28;20040;-65
2023/04/17 03:28:48;;;;;;;34.87;26.80;;;;;;;7.38;100.00;102398.09;5242157;28;20038;-65
2023/04/17 03:31:22;;;;;;;37.63;27.97;;;;;;;7.38;100.00;102392.91;5241588;28;20038;-65
2023/04/17 03:33:53;;;;;;;37.17;27.73;;;;;;;7.39;100.00;102386.88;5240873;28;20033;-65
2023/04/17 03:36:26;;;;;;;35.17;26.70;;;;;;;7.37;100.00;102388.53;5241999;28;20116;-65
2023/04/17 03:38:57;;;;;;;35.03;27.00;;;;;;;7.34;100.00;102383.28;5242019;28;20164;-65
2023/04/17 03:41:28;;;;;;;37.20;26.27;;;;;;;7.41;100.00;102393.00;5242890;28;20053;-66
2023/04/17 03:44:00;;;;;;;36.23;27.77;;;;;;;7.36;100.00;102394.56;5246445;28;20076;-66
2023/04/17 03:46:31;;;;;;;33.23;26.33;;;;;;;7.39;100.00;102385.16;5245761;28;20037;-66
2023/04/17 03:49:02;;;;;;;33.57;26.83;;;;;;;7.37;100.00;102392.00;5246092;28;20113;-65
2023/04/17 03:51:34;;;;;;;33.63;25.57;;;;;;;7.35;100.00;102391.09;5246033;28;20034;-66
2023/04/17 03:54:05;;;;;;;38.10;27.93;;;;;;;7.29;100.00;102383.16;5244206;28;20472;-66
2023/04/17 03:56:37;;;;;;;37.43;27.33;;;;;;;7.25;100.00;102387.38;5245891;28;20056;-64
2023/04/17 03:59:08;;;;;;;34.23;25.77;;;;;;;7.28;100.00;102384.88;5244560;28;20033;-64
2023/04/17 04:01:43;;;;;;;34.70;26.73;;;;;;;7.25;100.00;102392.56;5245774;28;20400;-65
2023/04/17 04:04:14;;;;;;;36.63;27.17;;;;;;;7.25;100.00;102384.78;5245143;28;20033;-65
2023/04/17 04:06:46;;;;;;;34.00;26.60;;;;;;;7.20;100.00;102394.16;5228396;28;20037;-64
2023/04/17 04:09:17;;;;;;;36.57;27.40;;;;;;;7.20;100.00;102390.72;5247055;28;20032;-64
2023/04/17 04:11:48;;;;;;;36.00;28.27;;;;;;;7.20;100.00;102386.38;5246470;28;20102;-65
2023/04/17 04:14:20;;;;;;;37.57;27.87;;;;;;;7.21;100.00;102388.16;5244736;28;20477;-65
2023/04/17 04:16:51;;;;;;;37.27;27.73;;;;;;;7.19;100.00;102381.16;5244082;28;20124;-64
2023/04/17 04:19:23;;;;;;;41.67;29.70;;;;;;;7.10;100.00;102393.03;5244112;28;20113;-65
2023/04/17 04:21:54;;;;;;;43.00;30.20;;;;;;;7.15;100.00;102394.88;5244495;28;20033;-64
2023/04/17 04:24:26;;;;;;;39.07;28.90;;;;;;;7.11;100.00;102388.72;5245121;28;20038;-65
2023/04/17 04:27:03;;;;;;;39.23;29.33;;;;;;;7.18;100.00;102400.13;5244781;28;20068;-65
2023/04/17 04:29:36;;;;;;;38.60;28.35;;;;;;;7.18;100.00;102398.44;5245311;28;20037;-65
2023/04/17 04:32:08;;;;;;;38.28;28.70;;;;;;;7.18;100.00;102393.25;5245858;28;20350;-65
2023/04/17 04:34:43;;;;;;;37.33;28.73;;;;;;;7.22;100.00;102400.28;5227331;28;20026;-65
2023/04/17 04:37:14;;;;;;;39.75;29.88;;;;;;;7.23;100.00;102407.22;5243494;28;20037;-65
2023/04/17 04:40:00;;;;;;;35.03;27.85;;;;;;;7.21;100.00;102403.72;5245073;28;20100;-65
2023/04/17 04:42:32;;;;;;;40.35;27.42;;;;;;;7.18;100.00;102407.91;5243672;28;20046;-65
2023/04/17 04:45:04;;;;;;;42.70;29.50;;;;;;;7.12;100.00;102409.53;5244906;28;20132;-64
2023/04/17 04:47:36;;;;;;;39.78;29.48;;;;;;;7.11;100.00;102415.53;5244891;28;20030;-65
2023/04/17 04:50:08;;;;;;;38.07;28.30;;;;;;;7.16;100.00;102417.38;5244435;28;20056;-65
2023/04/17 04:52:39;;;;;;;36.63;29.48;;;;;;;7.14;100.00;102406.97;5244326;28;20375;-65
2023/04/17 04:55:11;;;;;;;37.97;28.73;;;;;;;7.14;100.00;102406.97;5244832;28;20033;-65
2023/04/17 04:57:42;;;;;;;39.00;28.37;;;;;;;7.18;100.00;102402.72;5226760;28;20116;-66
2023/04/17 05:00:14;;;;;;;39.33;27.83;;;;;;;7.22;100.00;102410.66;5244473;28;20389;-65
2023/04/17 05:02:45;;;;;;;45.13;30.13;;;;;;;7.16;100.00;102407.88;5244147;28;20026;-65
2023/04/17 05:05:17;;;;;;;40.73;28.63;;;;;;;7.16;100.00;102412.19;5243093;28;20041;-64
2023/04/17 05:07:48;;;;;;;39.60;29.17;;;;;;;7.12;100.00;102411.25;5226445;28;20112;-64
2023/04/17 05:10:20;;;;;;;40.87;30.00;;;;;;;7.16;100.00;102415.66;5244218;28;20061;-64
2023/04/17 05:12:51;;;;;;;39.30;30.40;;;;;;;7.19;100.00;102422.66;5244159;28;20079;-66
2023/04/17 05:15:22;;;;;;;39.70;30.17;;;;;;;7.26;100.00;102421.97;5243860;28;20036;-66
2023/04/17 05:17:54;;;;;;;39.87;28.83;;;;;;;7.25;100.00;102420.25;5244161;28;20107;-65
2023/04/17 05:20:25;;;;;;;37.30;30.70;;;;;;;7.24;100.00;102434.03;5244091;28;20030;-66
2023/04/17 05:22:57;;;;;;;42.53;32.60;;;;;;;7.18;100.00;102437.34;5244056;28;20029;-65
2023/04/17 05:25:28;;;;;;;40.70;30.63;;;;;;;7.19;100.00;102438.22;5244166;28;20030;-66
2023/04/17 05:28:00;;;;;;;38.10;30.23;;;;;;;7.25;100.00;102434.06;5242644;28;20500;-65
2023/04/17 05:30:31;;;;;;;37.73;30.40;;;;;;;7.23;100.00;102440.94;5243921;28;20087;-65
2023/04/17 05:33:02;;;;;;;44.70;31.10;;;;;;;7.25;100.00;102438.41;5244206;28;20194;-65
2023/04/17 05:35:34;;;;;;;44.07;31.27;;;;;;;7.33;100.00;102438.63;5243534;28;20030;-66
2023/04/17 05:38:06;;;;;;;42.50;31.17;;;;;;;7.28;100.00;102433.28;5242832;28;20386;-65
2023/04/17 05:40:38;;;;;;;40.22;31.25;;;;;;;7.32;100.00;102437.72;5244081;28;20079;-66
2023/04/17 05:43:10;;;;;;;45.50;32.50;;;;;;;7.32;100.00;102442.03;5244337;28;20372;-65
2023/04/17 05:45:42;;;;;;;42.25;31.00;;;;;;;7.34;100.00;102441.25;5242938;28;20116;-65
2023/04/17 05:48:13;;;;;;;40.37;30.40;;;;;;;7.38;100.00;102437.00;5242988;28;20541;-65
2023/04/17 05:50:46;;;;;;;40.03;30.20;;;;;;;7.40;100.00;102446.56;5243504;28;20021;-66
2023/04/17 05:53:17;;;;;;;38.42;30.60;;;;;;;7.39;100.00;102451.72;5243471;28;20527;-65
2023/04/17 05:55:48;;;;;;;39.80;31.97;;;;;;;7.31;100.00;102443.75;5243400;28;20068;-66
2023/04/17 05:58:20;;;;;;;48.90;32.87;;;;;;;7.35;100.00;102448.16;5225737;28;20037;-65
2023/04/17 06:00:51;;;;;;;41.27;32.00;;;;;;;7.35;100.00;102444.72;5243022;28;20385;-65
2023/04/17 06:03:23;;;;;;;40.63;31.70;;;;;;;7.32;100.00;102448.09;5243143;28;20042;-65
2023/04/17 06:05:55;;;;;;;40.93;31.27;;;;;;;7.35;100.00;102453.34;5241679;28;20065;-65
2023/04/17 06:08:27;;;;;;;40.50;32.95;;;;;;;7.38;100.00;102457.78;5243084;28;20500;-65
2023/04/17 06:10:58;;;;;;;41.33;31.57;;;;;;;7.42;100.00;102452.72;5242773;28;20037;-64
2023/04/17 06:13:30;;;;;;;41.10;32.60;;;;;;;7.38;100.00;102463.81;5242616;28;20367;-65
2023/04/17 06:16:01;;;;;;;44.37;33.43;;;;;;;7.32;100.00;102457.59;5243199;28;20420;-65
2023/04/17 06:18:32;;;;;;;42.70;32.30;;;;;;;7.29;100.00;102464.47;5243433;28;20025;-64
2023/04/17 06:21:05;;;;;;;41.10;32.07;;;;;;;7.38;100.00;102465.56;5241641;28;20522;-65
2023/04/17 06:23:37;;;;;;;45.92;33.75;;;;;;;7.38;100.00;102465.56;5243291;28;20037;-65
2023/04/17 06:26:09;;;;;;;44.20;33.90;;;;;;;7.45;100.00;102462.28;5242904;28;20033;-65
2023/04/17 06:28:41;;;;;;;45.63;32.97;;;;;;;7.50;100.00;102465.88;5242640;28;20025;-65
2023/04/17 06:31:12;;;;;;;44.83;32.77;;;;;;;7.49;100.00;102458.94;5242406;28;20041;-66
2023/04/17 06:33:46;;;;;;;43.63;33.90;;;;;;;7.47;100.00;102466.69;5242681;28;20044;-65
2023/04/17 06:36:17;;;;;;;42.30;31.63;;;;;;;7.46;100.00;102464.91;5242533;28;20485;-66
2023/04/17 06:38:49;;;;;;;46.50;32.87;;;;;;;7.55;100.00;102477.28;5242144;28;20122;-66
2023/04/17 06:41:21;;;;;;;42.53;33.27;;;;;;;7.53;100.00;102480.66;5242446;28;20026;-65
2023/04/17 06:43:52;;;;;;;42.80;32.63;;;;;;;7.53;100.00;102483.25;5242573;28;20034;-65
2023/04/17 06:46:23;;;;;;;42.23;33.03;;;;;;;7.54;100.00;102477.22;5242279;28;20049;-65
2023/04/17 06:48:58;;;;;;;42.00;32.40;;;;;;;7.63;100.00;102473.16;5241267;28;20111;-65
2023/04/17 06:51:29;;;;;;;41.10;31.60;;;;;;;7.65;100.00;102479.25;5242837;28;20022;-66
2023/04/17 06:54:01;;;;;;;40.43;32.00;;;;;;;7.64;100.00;102480.09;5241167;28;20381;-66
2023/04/17 06:56:32;;;;;;;41.43;30.97;;;;;;;7.66;100.00;102485.31;5240946;28;20045;-66
2023/04/17 06:59:03;;;;;;;53.23;34.40;;;;;;;7.62;100.00;102489.56;5241934;28;20115;-66
2023/04/17 07:01:36;;;;;;;41.80;32.30;;;;;;;7.74;100.00;102498.50;5242199;28;20029;-66
2023/04/17 07:04:09;;;;;;;39.55;32.40;;;;;;;7.81;100.00;102492.66;5242274;28;20030;-66
2023/04/17 07:06:40;;;;;;;40.88;31.65;;;;;;;7.81;100.00;102498.72;5242485;28;20094;-65
2023/04/17 07:09:12;;;;;;;42.60;32.70;;;;;;;7.79;100.00;102503.00;5242056;28;20490;-64
2023/04/17 07:11:43;;;;;;;45.63;32.83;;;;;;;7.75;100.00;102506.34;5242104;28;20484;-65
2023/04/17 07:14:14;;;;;;;45.70;34.33;;;;;;;7.75;100.00;102508.06;5241977;28;20545;-65
2023/04/17 07:16:46;;;;;;;45.53;35.43;;;;;;;7.69;100.00;102511.38;5240592;28;20063;-65
2023/04/17 07:19:18;;;;;;;42.07;32.00;;;;;;;7.73;100.00;102512.31;5241404;28;20041;-66
2023/04/17 07:21:50;;;;;;;38.08;31.55;;;;;;;7.72;100.00;102507.97;5241638;28;20032;-66
2023/04/17 07:24:22;;;;;;;43.10;32.53;;;;;;;7.83;100.00;102509.16;5241596;28;20040;-66
2023/04/17 07:26:53;;;;;;;42.57;32.97;;;;;;;7.77;100.00;102525.41;5240417;28;20033;-66
2023/04/17 07:29:24;;;;;;;44.00;32.10;;;;;;;7.89;100.00;102527.50;5241938;28;20033;-65
2023/04/17 07:31:56;;;;;;;44.10;31.70;;;;;;;7.91;100.00;102527.53;5240754;28;20032;-65
2023/04/17 07:34:29;;;;;;;41.70;32.40;;;;;;;8.03;100.00;102522.63;5241768;28;20034;-66
2023/04/17 07:37:01;;;;;;;39.05;30.73;;;;;;;7.97;100.00;102530.25;5241780;28;20440;-65
2023/04/17 07:39:32;;;;;;;38.20;30.30;;;;;;;8.07;100.00;102519.28;5242241;28;20045;-65
2023/04/17 07:42:06;;;;;;;40.23;31.60;;;;;;;8.16;100.00;102521.22;5241865;28;20033;-65
2023/04/17 07:44:37;;;;;;;41.17;30.73;;;;;;;8.31;100.00;102521.63;5242200;28;20036;-65
2023/04/17 07:47:09;;;;;;;35.03;29.13;;;;;;;8.39;100.00;102527.88;5241658;28;20025;-65
2023/04/17 07:49:40;;;;;;;41.40;30.73;;;;;;;8.51;100.00;102521.25;5242565;28;20465;-65
2023/04/17 07:52:14;;;;;;;39.97;30.33;;;;;;;8.62;100.00;102527.56;5242020;28;20069;-66
2023/04/17 07:54:45;;;;;;;37.53;31.13;;;;;;;8.70;100.00;102530.34;5240335;28;20099;-64
2023/04/17 07:57:17;;;;;;;38.90;30.10;;;;;;;8.67;100.00;102525.09;5240737;28;20042;-65
2023/04/17 07:59:48;;;;;;;37.00;30.57;;;;;;;8.55;100.00;102534.34;5241878;28;20104;-65
2023/04/17 08:02:19;;;;;;;37.00;30.97;;;;;;;8.50;100.00;102537.66;5241579;28;20034;-65
2023/04/17 08:04:51;;;;;;;38.80;30.33;;;;;;;8.42;100.00;102528.78;5241772;28;20030;-65
2023/04/17 08:07:22;;;;;;;37.77;30.77;;;;;;;8.63;100.00;102534.53;5241310;28;20539;-65
2023/04/17 08:09:54;;;;;;;40.60;33.13;;;;;;;8.68;100.00;102535.53;5240013;28;20037;-65
2023/04/17 08:12:25;;;;;;;35.13;30.80;;;;;;;8.93;100.00;102538.66;5241805;28;20428;-65
2023/04/17 08:14:57;;;;;;;36.63;30.43;;;;;;;9.13;100.00;102537.38;5241388;28;20060;-65
2023/04/17 08:17:29;;;;;;;37.57;29.80;;;;;;;9.39;100.00;102542.25;5241973;28;20087;-65
2023/04/17 08:20:10;;;;;;;33.38;28.02;;;;;;;9.56;99.10;102539.97;5241026;28;20176;-65
2023/04/17 08:22:44;;;;;;;31.30;27.05;;;;;;;9.53;96.48;102549.44;5240872;28;20045;-65
2023/04/17 08:25:15;;;;;;;33.53;27.10;;;;;;;9.65;96.71;102542.75;5241256;28;20377;-65
2023/04/17 08:27:50;;;;;;;29.07;25.90;;;;;;;9.67;95.21;102548.88;5241426;28;20033;-65
2023/04/17 08:30:23;;;;;;;30.33;24.77;;;;;;;9.97;95.72;102544.22;5243936;28;20040;-66
2023/04/17 08:32:56;;;;;;;33.95;25.17;;;;;;;10.15;93.97;102547.13;5243995;28;20516;-65
2023/04/17 08:35:27;;;;;;;29.13;24.40;;;;;;;10.30;92.94;102548.25;5243810;28;20029;-65
2023/04/17 08:37:59;;;;;;;30.50;24.73;;;;;;;10.39;91.79;102548.44;5245266;28;20056;-65
2023/04/17 08:40:30;;;;;;;29.20;23.23;;;;;;;10.35;91.12;102550.13;5245024;28;20030;-65
2023/04/17 08:43:15;;;;;;;28.93;25.23;;;;;;;10.01;90.51;102551.22;5243872;28;20120;-65
2023/04/17 08:45:54;;;;;;;30.05;25.70;;;;;;;10.28;91.86;102548.22;5243489;28;20025;-66
2023/04/17 08:48:25;;;;;;;29.02;25.23;;;;;;;10.19;90.64;102551.56;5244665;28;20064;-66
2023/04/17 08:50:57;;;;;;;31.70;24.97;;;;;;;10.11;90.67;102555.78;5226976;28;20116;-66
2023/04/17 08:53:29;;;;;;;27.53;24.37;;;;;;;9.93;90.78;102547.59;5210454;28;20042;-66
2023/04/17 08:56:05;;;;;;;29.37;24.53;;;;;;;10.14;91.92;102550.63;5243795;28;20037;-66
2023/04/17 08:58:37;;;;;;;28.17;25.08;;;;;;;10.09;91.32;102556.59;5243138;28;20030;-66
2023/04/17 09:01:10;;;;;;;29.53;25.57;;;;;;;10.16;91.35;102551.50;5245028;28;20029;-66
2023/04/17 09:03:43;;;;;;;31.10;26.10;;;;;;;10.28;90.42;102550.84;5242767;28;20037;-65
2023/04/17 09:06:15;;;;;;;28.90;23.30;;;;;;;10.64;90.21;102546.22;5244274;28;20100;-65
2023/04/17 09:08:58;;;;;;;28.00;25.00;;;;;;;10.58;87.99;102550.50;5243096;28;20125;-65
2023/04/17 09:11:30;;;;;;;29.08;23.92;;;;;;;10.87;87.56;102549.19;5244643;28;20029;-66
2023/04/17 09:14:01;;;;;;;30.90;26.03;;;;;;;10.70;86.75;102556.75;5226311;28;20048;-65
2023/04/17 09:16:34;;;;;;;29.07;24.03;;;;;;;10.75;86.80;102550.75;5244496;28;20092;-66
2023/04/17 09:19:05;;;;;;;27.58;22.20;;;;;;;10.81;86.65;102549.09;5226508;28;20103;-66
2023/04/17 09:21:37;;;;;;;27.00;23.63;;;;;;;11.13;86.30;102549.53;5244655;28;20457;-66
2023/04/17 09:24:09;;;;;;;27.53;24.53;;;;;;;11.37;85.33;102554.19;5243198;28;20038;-66
2023/04/17 09:26:40;;;;;;;27.93;24.90;;;;;;;11.39;82.79;102559.44;5243996;28;20108;-66
2023/04/17 09:29:13;;;;;;;29.23;24.53;;;;;;;11.50;82.15;102557.81;5242762;28;20036;-65
2023/04/17 09:31:45;;;;;;;27.95;24.27;;;;;;;11.52;82.13;102556.09;5243083;28;20037;-65
2023/04/17 09:34:16;;;;;;;27.37;23.40;;;;;;;11.29;82.37;102553.22;5243526;28;20025;-67
2023/04/17 09:36:56;;;;;;;27.70;24.13;;;;;;;11.50;82.30;102547.38;5242889;28;20326;-65
2023/04/17 09:39:27;;;;;;;27.48;24.52;;;;;;;11.85;81.10;102547.75;5243889;28;20056;-65
2023/04/17 09:42:04;;;;;;;28.13;25.00;;;;;;;12.00;79.78;102548.81;5225701;28;20026;-65
2023/04/17 09:44:36;;;;;;;26.67;23.80;;;;;;;12.24;79.00;102549.91;5243215;28;20029;-66
2023/04/17 09:47:08;;;;;;;27.85;23.27;;;;;;;12.53;77.43;102552.75;5243869;28;20408;-65
2023/04/17 09:49:43;;;;;;;28.17;22.42;;;;;;;12.66;77.65;102548.47;5242344;28;20030;-65
2023/04/17 09:52:18;;;;;;;27.13;23.08;;;;;;;12.74;75.05;102552.00;5243800;28;20030;-66
2023/04/17 09:54:52;;;;;;;29.23;23.88;;;;;;;13.12;73.91;102556.56;5242214;28;20025;-65
2023/04/17 09:57:26;;;;;;;30.23;23.25;;;;;;;13.74;72.72;102552.47;5243702;28;20037;-65
2023/04/17 10:00:02;;;;;;;27.33;22.25;;;;;;;14.15;70.15;102553.41;5243396;28;20064;-65
2023/04/17 10:02:37;;;;;;;27.42;21.83;;;;;;;14.38;68.86;102548.19;5243077;28;20040;-66
2023/04/17 10:05:12;;;;;;;23.95;21.38;;;;;;;13.91;67.61;102552.53;5242909;28;20026;-65
2023/04/17 10:07:46;;;;;;;25.88;23.17;;;;;;;13.50;68.92;102548.91;5226214;28;20029;-66
2023/04/17 10:10:30;;;;;;;23.17;20.58;;;;;;;13.61;70.38;102545.47;5241798;28;20091;-66
2023/04/17 10:13:04;;;;;;;26.00;22.92;;;;;;;14.36;68.09;102544.66;5241908;28;20042;-65
2023/04/17 10:15:35;;;;;;;22.95;20.60;;;;;;;15.03;63.81;102535.81;5241989;28;20385;-65
2023/04/17 10:18:23;;;;;;;26.63;21.17;;;;;;;16.22;63.91;102543.91;5242704;28;20045;-65
2023/04/17 10:20:55;;;;;;;25.67;21.65;;;;;;;16.59;58.23;102540.09;5243381;28;20491;-65
2023/04/17 10:23:33;;;;;;;22.83;19.70;;;;;;;16.64;58.86;102535.66;5241577;28;20062;-65
2023/04/17 10:26:23;;;;;;;23.63;20.92;;;;;;;16.67;57.73;102542.66;5243001;28;20025;-65
2023/04/17 10:28:58;;;;;;;24.23;21.52;;;;;;;15.76;56.90;102532.84;5242766;28;20032;-68
2023/04/17 10:32:26;;;;;;;21.83;19.52;;;;;;;15.83;60.41;102534.59;5243044;28;20373;-65
2023/04/17 10:35:21;;;;;;;21.88;19.52;;;;;;;16.65;55.65;102533.91;5221472;28;20038;-66
2023/04/17 10:38:02;;;;;;;25.83;20.45;;;;;;;17.08;54.04;102530.78;5240954;28;20039;-66
2023/04/17 10:40:35;;;;;;;21.77;19.27;;;;;;;17.75;51.39;102534.28;5242994;28;20025;-66
2023/04/17 10:43:10;;;;;;;26.67;19.30;;;;;;;16.98;51.75;102540.56;5242848;28;20207;-66
2023/04/17 10:46:09;;;;;;;22.48;20.17;;;;;;;16.45;54.43;102534.09;5242124;28;20073;-65
2023/04/17 10:48:43;;;;;;;20.38;18.08;;;;;;;17.20;52.21;102535.94;5242608;28;20037;-65
2023/04/17 10:51:22;;;;;;;20.95;18.65;;;;;;;18.92;48.25;102537.63;5241265;28;20040;-65
2023/04/17 10:54:00;;;;;;;21.33;19.02;;;;;;;18.86;47.63;102511.31;5242169;28;20033;-65
2023/04/17 10:56:44;;;;;;;20.63;18.50;;;;;;;18.13;48.98;102524.94;5242441;28;20350;-65
2023/04/17 10:59:22;;;;;;;21.30;19.00;;;;;;;17.04;48.87;102527.34;5242164;28;20069;-64
2023/04/17 11:01:59;;;;;;;22.95;20.50;;;;;;;16.24;51.99;102514.97;5242882;28;20041;-65
2023/04/17 11:04:32;;;;;;;22.25;20.13;;;;;;;17.61;51.01;102517.78;5240822;28;20575;-65
2023/04/17 11:07:03;;;;;;;21.65;18.75;;;;;;;19.62;45.67;102514.97;5242193;28;20040;-65
2023/04/17 11:09:35;;;;;;;22.30;19.53;;;;;;;20.58;42.06;102508.19;5242643;28;20389;-65
2023/04/17 11:12:06;;;;;;;23.40;20.90;;;;;;;20.70;40.19;102512.28;5241972;28;20071;-65
2023/04/17 11:14:41;;;;;;;25.43;19.13;;;;;;;20.07;41.22;102517.44;5241913;28;20083;-66
2023/04/17 11:17:13;;;;;;;23.10;19.35;;;;;;;18.77;43.30;102504.41;5241943;28;20104;-65
2023/04/17 11:19:44;;;;;;;23.37;21.00;;;;;;;18.63;44.80;102503.81;5241938;28;20167;-66
2023/04/17 11:22:17;;;;;;;20.97;18.80;;;;;;;18.83;45.47;102511.34;5241922;28;20032;-65
2023/04/17 11:24:51;;;;;;;22.05;19.50;;;;;;;18.89;43.75;102513.88;5242350;28;20038;-66
2023/04/17 11:27:23;;;;;;;21.13;18.13;;;;;;;20.21;42.26;102512.66;5241697;28;20095;-65
2023/04/17 11:29:54;;;;;;;21.07;18.23;;;;;;;21.31;40.69;102509.63;5241100;28;20548;-65
2023/04/17 11:32:25;;;;;;;20.27;18.13;;;;;;;21.42;38.12;102496.03;5241828;28;20033;-65
2023/04/17 11:34:57;;;;;;;21.03;18.93;;;;;;;20.33;38.51;102506.16;5241701;28;20057;-65